createdAt,value
2018-07-27T00:01:01.943Z,82.58
2018-07-27T00:02:02.510Z,81.48
2018-07-27T00:03:03.076Z,81.48
2018-07-27T00:04:03.629Z,81.57
2018-07-27T00:05:04.186Z,81.67
2018-07-27T00:06:04.741Z,82.45
2018-07-27T00:07:05.298Z,82.93
2018-07-27T00:08:05.858Z,82.45
2018-07-27T00:09:06.418Z,82.15
2018-07-27T00:10:06.971Z,82.15
2018-07-27T00:11:07.523Z,81.87
2018-07-27T00:12:08.081Z,82.15
2018-07-27T00:13:08.633Z,82.83
2018-07-27T00:14:09.194Z,83.03
2018-07-27T00:15:09.752Z,82.64
2018-07-27T00:16:10.306Z,82.15
2018-07-27T00:17:10.875Z,82.15
2018-07-27T00:18:11.425Z,82.45
2018-07-27T00:19:11.977Z,82.79
2018-07-27T00:20:12.528Z,82.54
2018-07-27T00:21:13.082Z,83.08
2018-07-27T00:22:13.640Z,82.60
2018-07-27T00:23:14.196Z,82.60
2018-07-27T00:24:14.759Z,82.45
2018-07-27T00:25:15.311Z,82.69
2018-07-27T00:26:15.863Z,82.40
2018-07-27T00:27:16.420Z,82.11
2018-07-27T00:28:16.981Z,83.18
2018-07-27T00:29:17.541Z,82.31
2018-07-27T00:30:18.098Z,81.87
2018-07-27T00:31:18.656Z,82.35
2018-07-27T00:32:19.210Z,82.06
2018-07-27T00:33:19.770Z,81.92
2018-07-27T00:34:20.321Z,82.60
2018-07-27T00:35:21.003Z,82.60
2018-07-27T00:36:21.500Z,82.50
2018-07-27T00:37:22.150Z,82.40
2018-07-27T00:38:22.686Z,82.11
2018-07-27T00:39:23.242Z,81.53
2018-07-27T00:40:23.801Z,81.09
2018-07-27T00:41:24.358Z,81.44
2018-07-27T00:42:25.119Z,80.95
2018-07-27T00:43:25.668Z,82.31
2018-07-27T00:44:26.234Z,82.02
2018-07-27T00:45:26.800Z,82.02
2018-07-27T00:46:27.387Z,82.11
2018-07-27T00:47:27.914Z,82.02
2018-07-27T00:48:28.479Z,82.89
2018-07-27T00:49:29.035Z,83.27
2018-07-27T00:50:29.800Z,81.63
2018-07-27T00:51:30.354Z,82.69
2018-07-27T00:52:30.912Z,83.33
2018-07-27T00:53:31.578Z,83.42
2018-07-27T00:54:32.265Z,83.23
2018-07-27T00:55:32.827Z,82.84
2018-07-27T00:56:33.385Z,83.04
2018-07-27T00:57:33.938Z,82.75
2018-07-27T00:58:34.496Z,82.26
2018-07-27T00:59:35.053Z,82.17
2018-07-27T01:00:35.607Z,81.49
2018-07-27T01:01:36.159Z,81.20
2018-07-27T01:02:36.711Z,80.91
2018-07-27T01:03:37.272Z,80.62
2018-07-27T01:04:37.827Z,80.62
2018-07-27T01:05:38.380Z,80.33
2018-07-27T01:06:38.943Z,80.14
2018-07-27T01:07:39.493Z,80.08
2018-07-27T01:08:40.049Z,79.89
2018-07-27T01:09:40.604Z,79.89
2018-07-27T01:10:41.157Z,80.38
2018-07-27T01:11:41.713Z,79.99
2018-07-27T01:12:42.267Z,80.28
2018-07-27T01:13:42.814Z,80.18
2018-07-27T01:14:43.364Z,80.08
2018-07-27T01:15:43.917Z,80.08
2018-07-27T01:16:44.474Z,79.89
2018-07-27T01:17:45.034Z,79.99
2018-07-27T01:18:45.593Z,79.89
2018-07-27T01:19:46.140Z,79.41
2018-07-27T01:20:46.695Z,79.60
2018-07-27T01:21:47.252Z,79.12
2018-07-27T01:22:47.812Z,78.83
2018-07-27T01:23:48.368Z,77.96
2018-07-27T01:24:48.924Z,78.06
2018-07-27T01:25:49.483Z,77.86
2018-07-27T01:26:50.031Z,77.86
2018-07-27T01:27:50.589Z,77.57
2018-07-27T01:28:51.144Z,77.96
2018-07-27T01:29:51.702Z,77.76
2018-07-27T01:30:52.264Z,77.48
2018-07-27T01:31:52.819Z,77.38
2018-07-27T01:32:53.376Z,77.38
2018-07-27T01:33:53.923Z,77.76
2018-07-27T01:34:54.485Z,77.09
2018-07-27T01:35:55.039Z,77.19
2018-07-27T01:36:55.590Z,77.00
2018-07-27T01:37:56.150Z,76.70
2018-07-27T01:38:56.706Z,76.22
2018-07-27T01:39:57.264Z,76.32
2018-07-27T01:40:57.830Z,76.32
2018-07-27T01:41:58.382Z,76.42
2018-07-27T01:42:58.939Z,76.61
2018-07-27T01:43:59.498Z,76.51
2018-07-27T01:45:00.048Z,76.90
2018-07-27T01:46:00.600Z,76.42
2018-07-27T01:47:01.157Z,76.12
2018-07-27T01:48:01.713Z,76.03
2018-07-27T01:49:02.265Z,75.93
2018-07-27T01:50:02.823Z,75.97
2018-07-27T01:51:03.441Z,76.32
2018-07-27T01:52:03.935Z,76.51
2018-07-27T01:53:04.489Z,76.51
2018-07-27T01:54:05.048Z,77.00
2018-07-27T01:55:05.607Z,77.96
2018-07-27T01:56:06.164Z,77.76
2018-07-27T01:57:06.719Z,77.67
2018-07-27T01:58:07.278Z,77.57
2018-07-27T01:59:07.834Z,77.86
2018-07-27T02:00:08.392Z,77.67
2018-07-27T02:01:08.947Z,77.67
2018-07-27T02:02:09.500Z,77.38
2018-07-27T02:03:10.056Z,77.28
2018-07-27T02:04:10.609Z,77.09
2018-07-27T02:05:11.166Z,77.86
2018-07-27T02:06:11.727Z,77.73
2018-07-27T02:07:12.277Z,77.83
2018-07-27T02:08:12.837Z,77.92
2018-07-27T02:09:13.386Z,78.59
2018-07-27T02:10:13.942Z,79.75
2018-07-27T02:11:14.499Z,79.08
2018-07-27T02:12:15.052Z,78.79
2018-07-27T02:13:15.609Z,78.69
2018-07-27T02:14:16.166Z,80.14
2018-07-27T02:15:16.718Z,79.85
2018-07-27T02:16:17.275Z,79.85
2018-07-27T02:17:17.834Z,79.95
2018-07-27T02:18:18.389Z,80.33
2018-07-27T02:19:18.943Z,80.30
2018-07-27T02:20:19.500Z,80.87
2018-07-27T02:21:20.053Z,80.82
2018-07-27T02:22:20.612Z,81.35
2018-07-27T02:23:21.171Z,81.55
2018-07-27T02:24:21.738Z,82.03
2018-07-27T02:25:22.320Z,82.32
2018-07-27T02:26:22.852Z,82.32
2018-07-27T02:27:23.408Z,82.90
2018-07-27T02:28:23.966Z,82.90
2018-07-27T02:29:24.520Z,83.29
2018-07-27T02:30:25.075Z,83.73
2018-07-27T02:31:25.634Z,83.44
2018-07-27T02:32:26.187Z,83.39
2018-07-27T02:33:26.737Z,83.48
2018-07-27T02:34:27.295Z,83.53
2018-07-27T02:35:27.850Z,83.73
2018-07-27T02:36:28.408Z,83.92
2018-07-27T02:37:28.958Z,83.73
2018-07-27T02:38:29.518Z,84.69
2018-07-27T02:39:30.071Z,84.41
2018-07-27T02:40:30.626Z,84.89
2018-07-27T02:41:31.182Z,84.89
2018-07-27T02:42:31.736Z,84.69
2018-07-27T02:43:32.298Z,84.50
2018-07-27T02:44:32.851Z,84.41
2018-07-27T02:45:33.412Z,84.41
2018-07-27T02:46:33.968Z,84.46
2018-07-27T02:47:34.525Z,84.84
2018-07-27T02:48:35.079Z,84.75
2018-07-27T02:49:35.642Z,84.36
2018-07-27T02:50:36.198Z,84.36
2018-07-27T02:51:36.757Z,84.27
2018-07-27T02:52:37.301Z,83.88
2018-07-27T02:53:37.861Z,83.59
2018-07-27T02:54:38.421Z,83.88
2018-07-27T02:55:38.978Z,84.07
2018-07-27T02:56:39.544Z,84.17
2018-07-27T02:57:40.089Z,83.88
2018-07-27T02:58:40.643Z,83.59
2018-07-27T02:59:41.199Z,84.07
2018-07-27T03:00:41.756Z,83.11
2018-07-27T03:01:42.315Z,83.01
2018-07-27T03:02:42.874Z,83.30
2018-07-27T03:03:43.433Z,83.40
2018-07-27T03:04:43.989Z,82.92
2018-07-27T03:05:44.546Z,83.98
2018-07-27T03:06:45.107Z,83.74
2018-07-27T03:07:45.666Z,83.98
2018-07-27T03:08:46.218Z,83.98
2018-07-27T03:09:46.859Z,83.88
2018-07-27T03:10:47.336Z,84.03
2018-07-27T03:11:47.889Z,83.30
2018-07-27T03:12:48.438Z,83.98
2018-07-27T03:13:48.996Z,82.92
2018-07-27T03:14:49.554Z,83.78
2018-07-27T03:15:50.108Z,83.78
2018-07-27T03:16:50.656Z,83.59
2018-07-27T03:17:51.211Z,83.30
2018-07-27T03:18:51.759Z,82.82
2018-07-27T03:19:52.315Z,83.11
2018-07-27T03:20:52.870Z,81.85
2018-07-27T03:21:53.430Z,81.47
2018-07-27T03:22:53.990Z,81.66
2018-07-27T03:23:54.548Z,81.95
2018-07-27T03:24:55.104Z,81.66
2018-07-27T03:25:55.667Z,81.95
2018-07-27T03:26:56.213Z,80.69
2018-07-27T03:27:56.773Z,81.37
2018-07-27T03:28:57.333Z,80.41
2018-07-27T03:29:57.893Z,80.51
2018-07-27T03:30:58.453Z,80.12
2018-07-27T03:31:59.010Z,79.44
2018-07-27T03:32:59.562Z,80.22
2018-07-27T03:34:00.116Z,80.41
2018-07-27T03:35:00.666Z,79.64
2018-07-27T03:36:01.223Z,79.83
2018-07-27T03:37:01.774Z,79.54
2018-07-27T03:38:02.341Z,79.74
2018-07-27T03:39:02.902Z,78.86
2018-07-27T03:40:03.463Z,78.77
2018-07-27T03:41:04.016Z,79.35
2018-07-27T03:42:04.601Z,79.25
2018-07-27T03:43:05.137Z,79.54
2018-07-27T03:44:05.695Z,79.44
2018-07-27T03:45:06.255Z,79.25
2018-07-27T03:46:06.806Z,79.44
2018-07-27T03:47:07.366Z,79.35
2018-07-27T03:48:07.921Z,79.50
2018-07-27T03:49:08.479Z,79.06
2018-07-27T03:50:09.032Z,79.35
2018-07-27T03:51:09.588Z,79.54
2018-07-27T03:52:10.147Z,78.63
2018-07-27T03:53:10.710Z,79.64
2018-07-27T03:54:11.263Z,80.02
2018-07-27T03:55:11.815Z,79.35
2018-07-27T03:56:12.378Z,78.58
2018-07-27T03:57:12.944Z,79.35
2018-07-27T03:58:13.512Z,78.38
2018-07-27T03:59:14.058Z,78.67
2018-07-27T04:00:14.611Z,78.73
2018-07-27T04:01:15.173Z,78.54
2018-07-27T04:02:15.763Z,78.54
2018-07-27T04:03:16.290Z,78.63
2018-07-27T04:04:16.848Z,78.73
2018-07-27T04:05:17.400Z,78.44
2018-07-27T04:06:17.961Z,78.06
2018-07-27T04:07:18.548Z,78.34
2018-07-27T04:08:19.091Z,78.86
2018-07-27T04:09:19.660Z,78.38
2018-07-27T04:10:20.220Z,78.15
2018-07-27T04:11:20.779Z,77.86
2018-07-27T04:12:21.334Z,78.29
2018-07-27T04:13:21.898Z,78.25
2018-07-27T04:14:22.462Z,78.06
2018-07-27T04:15:23.019Z,78.06
2018-07-27T04:16:23.580Z,78.06
2018-07-27T04:17:24.145Z,78.06
2018-07-27T04:18:24.704Z,77.76
2018-07-27T04:19:25.268Z,78.25
2018-07-27T04:20:25.833Z,78.54
2018-07-27T04:21:26.388Z,78.15
2018-07-27T04:22:26.982Z,77.96
2018-07-27T04:23:27.508Z,78.06
2018-07-27T04:24:28.065Z,77.76
2018-07-27T04:25:28.618Z,78.25
2018-07-27T04:26:29.184Z,78.44
2018-07-27T04:27:29.738Z,78.09
2018-07-27T04:28:30.299Z,77.58
2018-07-27T04:29:30.860Z,78.09
2018-07-27T04:30:31.423Z,78.19
2018-07-27T04:31:31.983Z,77.71
2018-07-27T04:32:32.543Z,77.03
2018-07-27T04:33:33.104Z,77.03
2018-07-27T04:34:33.665Z,77.23
2018-07-27T04:35:34.227Z,76.17
2018-07-27T04:36:34.782Z,76.50
2018-07-27T04:37:35.344Z,76.30
2018-07-27T04:38:35.901Z,76.20
2018-07-27T04:39:36.456Z,76.20
2018-07-27T04:40:37.021Z,76.10
2018-07-27T04:41:37.575Z,76.53
2018-07-27T04:42:38.138Z,76.34
2018-07-27T04:43:38.703Z,75.70
2018-07-27T04:44:39.265Z,74.77
2018-07-27T04:45:39.834Z,74.13
2018-07-27T04:46:40.414Z,73.97
2018-07-27T04:47:40.964Z,71.78
2018-07-27T04:48:41.528Z,71.14
2018-07-27T04:49:42.093Z,70.40
2018-07-27T04:50:42.663Z,70.44
2018-07-27T04:51:43.231Z,68.82
2018-07-27T04:52:43.802Z,68.76
2018-07-27T04:53:44.364Z,68.86
2018-07-27T04:54:44.928Z,67.24
2018-07-27T04:55:45.492Z,66.89
2018-07-27T04:56:46.060Z,66.21
2018-07-27T04:57:46.619Z,65.72
2018-07-27T04:58:47.183Z,65.14
2018-07-27T04:59:47.751Z,64.75
2018-07-27T05:00:48.311Z,65.05
2018-07-27T05:01:48.873Z,65.53
2018-07-27T05:02:49.440Z,65.82
2018-07-27T05:03:50.012Z,65.85
2018-07-27T05:04:50.567Z,65.85
2018-07-27T05:05:51.131Z,65.50
2018-07-27T05:06:51.696Z,63.68
2018-07-27T05:07:52.272Z,63.49
2018-07-27T05:08:52.841Z,63.39
2018-07-27T05:09:53.408Z,63.39
2018-07-27T05:10:53.978Z,63.39
2018-07-27T05:11:54.615Z,63.20
2018-07-27T05:12:55.111Z,64.17
2018-07-27T05:13:55.675Z,63.78
2018-07-27T05:14:56.248Z,63.87
2018-07-27T05:15:56.841Z,63.62
2018-07-27T05:16:57.389Z,62.54
2018-07-27T05:17:57.961Z,61.21
2018-07-27T05:18:58.532Z,60.92
2018-07-27T05:19:59.095Z,60.95
2018-07-27T05:20:59.666Z,58.03
2018-07-27T05:22:00.241Z,57.93
2018-07-27T05:23:00.820Z,58.51
2018-07-27T05:24:01.389Z,60.75
2018-07-27T05:25:01.957Z,60.88
2018-07-27T05:26:02.530Z,59.64
2018-07-27T05:27:03.105Z,58.97
2018-07-27T05:28:03.681Z,58.60
2018-07-27T05:29:04.255Z,57.65
2018-07-27T05:30:04.831Z,57.29
2018-07-27T05:31:05.401Z,55.86
2018-07-27T05:32:05.977Z,56.37
2018-07-27T05:33:06.553Z,55.40
2018-07-27T05:34:07.127Z,54.44
2018-07-27T05:35:07.706Z,53.37
2018-07-27T05:36:08.276Z,53.30
2018-07-27T05:37:08.853Z,53.59
2018-07-27T05:38:09.426Z,53.33
2018-07-27T05:39:10.005Z,52.32
2018-07-27T05:40:10.575Z,53.08
2018-07-27T05:41:11.150Z,54.39
2018-07-27T05:42:11.726Z,55.44
2018-07-27T05:43:12.321Z,56.26
2018-07-27T05:44:12.879Z,57.04
2018-07-27T05:45:13.472Z,57.31
2018-07-27T05:46:14.026Z,58.15
2018-07-27T05:47:14.598Z,57.86
2018-07-27T05:48:15.158Z,58.42
2018-07-27T05:49:15.731Z,59.59
2018-07-27T05:50:16.308Z,59.49
2018-07-27T05:51:16.882Z,59.46
2018-07-27T05:52:17.454Z,60.63
2018-07-27T05:53:18.027Z,59.46
2018-07-27T05:54:18.602Z,59.66
2018-07-27T05:55:19.171Z,59.85
2018-07-27T05:56:19.745Z,59.20
2018-07-27T05:57:20.312Z,56.52
2018-07-27T05:58:20.885Z,55.68
2018-07-27T05:59:21.478Z,55.22
2018-07-27T06:00:22.036Z,55.90
2018-07-27T06:01:22.620Z,53.78
2018-07-27T06:02:23.186Z,52.73
2018-07-27T06:03:23.761Z,53.22
2018-07-27T06:04:24.346Z,52.54
2018-07-27T06:05:24.919Z,51.51
2018-07-27T06:06:25.575Z,50.93
2018-07-27T06:07:26.112Z,51.51
2018-07-27T06:08:26.692Z,50.95
2018-07-27T06:09:27.267Z,50.17
2018-07-27T06:10:27.852Z,50.39
2018-07-27T06:11:28.422Z,50.61
2018-07-27T06:12:28.993Z,49.55
2018-07-27T06:13:29.573Z,49.55
2018-07-27T06:14:30.208Z,50.90
2018-07-27T06:15:30.728Z,50.54
2018-07-27T06:16:31.308Z,48.38
2018-07-27T06:17:31.883Z,48.50
2018-07-27T06:18:32.456Z,48.92
2018-07-27T06:19:33.035Z,46.08
2018-07-27T06:20:33.604Z,47.33
2018-07-27T06:21:34.172Z,48.23
2018-07-27T06:22:34.752Z,47.35
2018-07-27T06:23:35.328Z,47.08
2018-07-27T06:24:35.900Z,46.22
2018-07-27T06:25:36.507Z,46.12
2018-07-27T06:26:37.051Z,45.55
2018-07-27T06:27:37.630Z,45.16
2018-07-27T06:28:38.205Z,44.40
2018-07-27T06:29:38.807Z,44.10
2018-07-27T06:30:39.361Z,43.24
2018-07-27T06:31:39.945Z,42.75
2018-07-27T06:32:40.523Z,42.38
2018-07-27T06:33:41.103Z,42.18
2018-07-27T06:34:41.673Z,42.30
2018-07-27T06:35:42.245Z,41.80
2018-07-27T06:36:42.827Z,42.49
2018-07-27T06:37:43.406Z,41.90
2018-07-27T06:38:43.985Z,41.90
2018-07-27T06:39:44.577Z,41.51
2018-07-27T06:40:45.155Z,41.71
2018-07-27T06:41:45.735Z,41.51
2018-07-27T06:42:46.307Z,41.93
2018-07-27T06:43:46.891Z,41.63
2018-07-27T06:44:47.469Z,41.25
2018-07-27T06:45:48.043Z,41.93
2018-07-27T06:46:48.622Z,40.76
2018-07-27T06:47:49.207Z,40.78
2018-07-27T06:48:49.782Z,41.86
2018-07-27T06:49:50.362Z,41.30
2018-07-27T06:50:50.941Z,40.78
2018-07-27T06:51:51.533Z,41.09
2018-07-27T06:52:52.100Z,41.02
2018-07-27T06:53:52.681Z,40.82
2018-07-27T06:54:53.259Z,39.25
2018-07-27T06:55:53.842Z,39.54
2018-07-27T06:56:54.419Z,39.50
2018-07-27T06:57:55.003Z,40.00
2018-07-27T06:58:55.590Z,39.58
2018-07-27T06:59:56.168Z,39.68
2018-07-27T07:00:56.746Z,39.79
2018-07-27T07:01:57.323Z,39.18
2018-07-27T07:02:57.897Z,40.74
2018-07-27T07:03:58.477Z,40.48
2018-07-27T07:04:59.056Z,39.97
2018-07-27T07:05:59.645Z,39.40
2018-07-27T07:07:00.223Z,38.89
2018-07-27T07:08:00.805Z,39.76
2018-07-27T07:09:01.400Z,39.76
2018-07-27T07:10:01.958Z,39.26
2018-07-27T07:11:02.536Z,39.54
2018-07-27T07:12:03.114Z,40.03
2018-07-27T07:13:03.699Z,39.74
2018-07-27T07:14:04.268Z,39.47
2018-07-27T07:15:04.845Z,39.25
2018-07-27T07:16:05.420Z,39.64
2018-07-27T07:17:05.996Z,39.66
2018-07-27T07:18:06.575Z,39.15
2018-07-27T07:19:07.150Z,39.54
2018-07-27T07:20:07.727Z,39.74
2018-07-27T07:21:08.303Z,39.44
2018-07-27T07:22:08.877Z,39.05
2018-07-27T07:23:09.456Z,39.26
2018-07-27T07:24:10.035Z,39.26
2018-07-27T07:25:10.709Z,40.25
2018-07-27T07:26:11.640Z,39.18
2018-07-27T07:27:11.753Z,39.07
2018-07-27T07:28:12.333Z,38.60
2018-07-27T07:29:12.917Z,38.48
2018-07-27T07:30:13.495Z,38.58
2018-07-27T07:31:14.074Z,38.46
2018-07-27T07:32:14.651Z,39.15
2018-07-27T07:33:15.267Z,38.76
2018-07-27T07:34:15.804Z,39.13
2018-07-27T07:35:16.381Z,39.25
2018-07-27T07:36:16.962Z,39.05
2018-07-27T07:37:17.542Z,38.58
2018-07-27T07:38:18.124Z,38.79
2018-07-27T07:39:18.706Z,38.20
2018-07-27T07:40:19.282Z,38.49
2018-07-27T07:41:19.861Z,38.73
2018-07-27T07:42:20.437Z,38.45
2018-07-27T07:43:21.084Z,38.35
2018-07-27T07:44:21.642Z,38.75
2018-07-27T07:45:22.226Z,39.04
2018-07-27T07:46:22.803Z,38.06
2018-07-27T07:47:23.375Z,38.18
2018-07-27T07:48:23.958Z,37.29
2018-07-27T07:49:24.599Z,37.07
2018-07-27T07:50:25.118Z,37.07
2018-07-27T07:51:25.697Z,37.65
2018-07-27T07:52:26.276Z,37.55
2018-07-27T07:53:26.853Z,38.04
2018-07-27T07:54:27.432Z,38.54
2018-07-27T07:55:28.012Z,38.32
2018-07-27T07:56:28.594Z,38.43
2018-07-27T07:57:29.183Z,38.34
2018-07-27T07:58:29.773Z,37.73
2018-07-27T07:59:30.339Z,37.95
2018-07-27T08:00:30.916Z,38.04
2018-07-27T08:01:31.494Z,37.95
2018-07-27T08:02:32.075Z,37.65
2018-07-27T08:03:32.656Z,37.96
2018-07-27T08:04:33.235Z,37.59
2018-07-27T08:05:33.866Z,37.30
2018-07-27T08:06:34.399Z,37.72
2018-07-27T08:07:34.979Z,36.73
2018-07-27T08:08:35.558Z,36.91
2018-07-27T08:09:36.141Z,37.09
2018-07-27T08:10:36.720Z,37.37
2018-07-27T08:11:37.303Z,37.59
2018-07-27T08:12:38.872Z,37.21
2018-07-27T08:13:39.456Z,37.32
2018-07-27T08:14:40.030Z,36.63
2018-07-27T08:15:40.613Z,36.82
2018-07-27T08:16:41.192Z,37.19
2018-07-27T08:17:41.772Z,37.78
2018-07-27T08:18:42.361Z,37.39
2018-07-27T08:19:42.936Z,37.19
2018-07-27T08:20:43.515Z,37.11
2018-07-27T08:21:44.097Z,37.03
2018-07-27T08:22:44.690Z,36.61
2018-07-27T08:23:45.269Z,37.09
2018-07-27T08:24:45.849Z,37.39
2018-07-27T08:25:46.425Z,37.19
2018-07-27T08:26:47.002Z,37.21
2018-07-27T08:27:47.580Z,36.73
2018-07-27T08:28:48.161Z,36.46
2018-07-27T08:29:48.738Z,35.96
2018-07-27T08:30:49.329Z,36.65
2018-07-27T08:31:49.915Z,36.83
2018-07-27T08:32:50.500Z,36.02
2018-07-27T08:33:51.079Z,36.68
2018-07-27T08:34:51.658Z,37.19
2018-07-27T08:35:52.230Z,37.29
2018-07-27T08:36:52.811Z,37.29
2018-07-27T08:37:53.387Z,37.19
2018-07-27T08:38:53.995Z,37.19
2018-07-27T08:39:54.568Z,37.19
2018-07-27T08:40:55.146Z,37.66
2018-07-27T08:41:55.724Z,38.18
2018-07-27T08:42:56.304Z,37.09
2018-07-27T08:43:56.882Z,37.07
2018-07-27T08:44:57.464Z,36.99
2018-07-27T08:45:58.040Z,37.01
2018-07-27T08:46:58.625Z,36.70
2018-07-27T08:47:59.200Z,37.09
2018-07-27T08:48:59.800Z,37.51
2018-07-27T08:50:00.399Z,36.50
2018-07-27T08:51:00.970Z,36.61
2018-07-27T08:52:01.555Z,36.02
2018-07-27T08:53:02.137Z,35.91
2018-07-27T08:54:02.712Z,36.48
2018-07-27T08:55:03.313Z,36.78
2018-07-27T08:56:03.892Z,36.38
2018-07-27T08:57:04.472Z,36.60
2018-07-27T08:58:05.057Z,36.61
2018-07-27T08:59:05.634Z,36.32
2018-07-27T09:00:06.209Z,36.91
2018-07-27T09:01:06.781Z,35.83
2018-07-27T09:02:07.364Z,36.50
2018-07-27T09:03:07.971Z,36.88
2018-07-27T09:04:08.526Z,36.40
2018-07-27T09:05:09.101Z,36.19
2018-07-27T09:06:09.678Z,36.76
2018-07-27T09:07:10.254Z,36.96
2018-07-27T09:08:10.837Z,36.78
2018-07-27T09:09:11.414Z,36.38
2018-07-27T09:10:12.004Z,35.91
2018-07-27T09:11:12.572Z,36.50
2018-07-27T09:12:13.152Z,36.40
2018-07-27T09:13:13.729Z,36.80
2018-07-27T09:14:14.312Z,36.60
2018-07-27T09:15:14.888Z,36.48
2018-07-27T09:16:15.459Z,36.78
2018-07-27T09:17:16.043Z,36.50
2018-07-27T09:18:16.627Z,36.19
2018-07-27T09:19:17.194Z,36.86
2018-07-27T09:20:17.795Z,36.76
2018-07-27T09:21:18.407Z,35.97
2018-07-27T09:22:19.038Z,35.88
2018-07-27T09:23:19.615Z,36.07
2018-07-27T09:24:20.208Z,35.89
2018-07-27T09:25:20.994Z,35.99
2018-07-27T09:26:21.321Z,35.69
2018-07-27T09:27:21.899Z,35.88
2018-07-27T09:28:22.472Z,36.58
2018-07-27T09:29:23.047Z,36.70
2018-07-27T09:30:23.623Z,36.58
2018-07-27T09:31:24.201Z,36.09
2018-07-27T09:32:24.781Z,35.77
2018-07-27T09:33:25.364Z,36.46
2018-07-27T09:34:25.934Z,36.57
2018-07-27T09:35:26.521Z,36.36
2018-07-27T09:36:27.088Z,36.53
2018-07-27T09:37:27.667Z,36.71
2018-07-27T09:38:28.255Z,37.12
2018-07-27T09:39:28.845Z,37.12
2018-07-27T09:40:29.453Z,36.92
2018-07-27T09:41:30.022Z,37.02
2018-07-27T09:42:30.592Z,36.74
2018-07-27T09:43:31.167Z,36.65
2018-07-27T09:44:31.745Z,36.46
2018-07-27T09:45:32.324Z,36.57
2018-07-27T09:46:32.948Z,35.88
2018-07-27T09:47:33.479Z,36.15
2018-07-27T09:48:34.058Z,36.05
2018-07-27T09:49:34.638Z,36.15
2018-07-27T09:50:35.212Z,35.74
2018-07-27T09:51:35.814Z,36.74
2018-07-27T09:52:36.373Z,35.96
2018-07-27T09:53:36.945Z,35.77
2018-07-27T09:54:37.521Z,36.38
2018-07-27T09:55:38.097Z,35.91
2018-07-27T09:56:38.682Z,35.61
2018-07-27T09:57:39.289Z,35.93
2018-07-27T09:58:39.897Z,35.64
2018-07-27T09:59:40.481Z,34.46
2018-07-27T10:00:41.113Z,34.23
2018-07-27T10:01:41.690Z,34.61
2018-07-27T10:02:42.259Z,34.41
2018-07-27T10:03:42.834Z,34.71
2018-07-27T10:04:43.418Z,35.38
2018-07-27T10:05:44.016Z,34.91
2018-07-27T10:06:44.568Z,34.82
2018-07-27T10:07:45.173Z,34.64
2018-07-27T10:08:45.738Z,34.86
2018-07-27T10:09:46.312Z,34.44
2018-07-27T10:10:46.891Z,34.74
2018-07-27T10:11:47.468Z,34.34
2018-07-27T10:12:48.055Z,33.84
2018-07-27T10:13:48.609Z,34.72
2018-07-27T10:14:49.189Z,35.41
2018-07-27T10:15:49.769Z,35.63
2018-07-27T10:16:50.343Z,35.22
2018-07-27T10:17:50.930Z,35.12
2018-07-27T10:18:51.504Z,35.04
2018-07-27T10:19:52.079Z,34.15
2018-07-27T10:20:52.655Z,34.27
2018-07-27T10:21:53.236Z,34.06
2018-07-27T10:22:53.815Z,34.17
2018-07-27T10:23:54.393Z,34.36
2018-07-27T10:24:54.969Z,33.87
2018-07-27T10:25:55.546Z,34.27
2018-07-27T10:26:56.119Z,34.17
2018-07-27T10:27:56.696Z,34.18
2018-07-27T10:28:57.276Z,34.17
2018-07-27T10:29:57.865Z,34.17
2018-07-27T10:30:58.437Z,34.18
2018-07-27T10:31:59.005Z,33.47
2018-07-27T10:32:59.585Z,33.97
2018-07-27T10:34:00.162Z,33.09
2018-07-27T10:35:00.737Z,33.18
2018-07-27T10:36:01.312Z,33.09
2018-07-27T10:37:01.887Z,32.32
2018-07-27T10:38:02.464Z,33.13
2018-07-27T10:39:03.043Z,33.52
2018-07-27T10:40:03.631Z,32.93
2018-07-27T10:41:04.196Z,32.32
2018-07-27T10:42:04.775Z,32.62
2018-07-27T10:43:05.355Z,32.34
2018-07-27T10:44:05.932Z,32.73
2018-07-27T10:45:06.518Z,32.45
2018-07-27T10:46:07.089Z,31.68
2018-07-27T10:47:07.670Z,32.27
2018-07-27T10:48:08.252Z,32.17
2018-07-27T10:49:08.828Z,32.17
2018-07-27T10:50:09.419Z,32.46
2018-07-27T10:51:09.990Z,32.18
2018-07-27T10:52:10.567Z,31.29
2018-07-27T10:53:11.147Z,32.17
2018-07-27T10:54:11.729Z,32.86
2018-07-27T10:55:12.314Z,32.45
2018-07-27T10:56:12.894Z,32.34
2018-07-27T10:57:13.475Z,32.34
2018-07-27T10:58:14.047Z,32.14
2018-07-27T10:59:14.624Z,32.14
2018-07-27T11:00:15.204Z,32.25
2018-07-27T11:01:15.786Z,32.15
2018-07-27T11:02:16.364Z,32.15
2018-07-27T11:03:16.940Z,32.17
2018-07-27T11:04:17.509Z,31.87
2018-07-27T11:05:18.083Z,31.97
2018-07-27T11:06:18.663Z,31.87
2018-07-27T11:07:19.246Z,32.45
2018-07-27T11:08:19.831Z,33.13
2018-07-27T11:09:20.413Z,31.94
2018-07-27T11:10:20.995Z,32.14
2018-07-27T11:11:21.573Z,32.34
2018-07-27T11:12:22.152Z,32.14
2018-07-27T11:13:22.731Z,31.91
2018-07-27T11:14:23.309Z,32.92
2018-07-27T11:15:23.887Z,32.93
2018-07-27T11:16:24.522Z,32.06
2018-07-27T11:17:25.097Z,32.15
2018-07-27T11:18:25.611Z,32.06
2018-07-27T11:19:26.194Z,31.87
2018-07-27T11:20:26.771Z,30.98
2018-07-27T11:21:27.346Z,31.77
2018-07-27T11:22:27.921Z,32.18
2018-07-27T11:23:28.496Z,30.98
2018-07-27T11:24:29.073Z,30.57
2018-07-27T11:25:29.675Z,30.47
2018-07-27T11:26:30.221Z,30.79
2018-07-27T11:27:30.805Z,30.99
2018-07-27T11:28:31.381Z,31.11
2018-07-27T11:29:31.958Z,31.63
2018-07-27T11:30:32.538Z,31.32
2018-07-27T11:31:33.165Z,31.42
2018-07-27T11:32:33.791Z,30.63
2018-07-27T11:33:34.379Z,31.31
2018-07-27T11:34:34.957Z,31.82
2018-07-27T11:35:35.533Z,31.02
2018-07-27T11:36:36.113Z,31.32
2018-07-27T11:37:36.693Z,31.01
2018-07-27T11:38:37.262Z,31.49
2018-07-27T11:39:37.842Z,31.49
2018-07-27T11:40:38.418Z,31.18
2018-07-27T11:41:38.997Z,31.88
2018-07-27T11:42:39.655Z,31.10
2018-07-27T11:43:40.181Z,30.71
2018-07-27T11:44:40.762Z,30.62
2018-07-27T11:45:41.344Z,30.52
2018-07-27T11:46:41.915Z,30.71
2018-07-27T11:47:42.497Z,31.23
2018-07-27T11:48:43.075Z,31.01
2018-07-27T11:49:43.651Z,31.57
2018-07-27T11:50:44.221Z,31.60
2018-07-27T11:51:44.803Z,31.02
2018-07-27T11:52:45.383Z,30.73
2018-07-27T11:53:45.958Z,31.04
2018-07-27T11:54:46.536Z,30.84
2018-07-27T11:55:47.112Z,30.74
2018-07-27T11:56:47.688Z,30.96
2018-07-27T11:57:48.273Z,31.05
2018-07-27T11:58:48.855Z,30.56
2018-07-27T11:59:49.436Z,30.04
2018-07-27T12:00:50.032Z,30.93
2018-07-27T12:01:50.621Z,30.65
2018-07-27T12:02:51.189Z,29.96
2018-07-27T12:03:51.775Z,30.16
2018-07-27T12:04:52.362Z,30.73
2018-07-27T12:05:53.017Z,30.41
2018-07-27T12:06:53.551Z,30.04
2018-07-27T12:07:54.136Z,30.71
2018-07-27T12:08:54.708Z,31.01
2018-07-27T12:09:55.289Z,31.60
2018-07-27T12:10:55.868Z,31.90
2018-07-27T12:11:56.449Z,30.91
2018-07-27T12:12:57.030Z,31.01
2018-07-27T12:13:57.744Z,30.05
2018-07-27T12:14:58.280Z,30.15
2018-07-27T12:15:58.755Z,30.25
2018-07-27T12:16:59.345Z,30.43
2018-07-27T12:17:59.944Z,30.13
2018-07-27T12:19:00.501Z,30.23
2018-07-27T12:20:01.092Z,30.16
2018-07-27T12:21:01.820Z,30.15
2018-07-27T12:22:02.271Z,30.56
2018-07-27T12:23:02.831Z,30.46
2018-07-27T12:24:03.400Z,30.07
2018-07-27T12:25:03.997Z,29.83
2018-07-27T12:26:04.564Z,30.04
2018-07-27T12:27:05.206Z,30.05
2018-07-27T12:28:05.723Z,30.16
2018-07-27T12:29:06.300Z,30.46
2018-07-27T12:30:06.881Z,29.75
2018-07-27T12:31:07.465Z,29.57
2018-07-27T12:32:08.076Z,30.04
2018-07-27T12:33:08.640Z,30.25
2018-07-27T12:34:09.221Z,30.15
2018-07-27T12:35:09.804Z,30.66
2018-07-27T12:36:10.379Z,30.05
2018-07-27T12:37:10.963Z,29.64
2018-07-27T12:38:11.561Z,29.83
2018-07-27T12:39:12.121Z,30.52
2018-07-27T12:40:12.704Z,30.21
2018-07-27T12:41:13.293Z,30.52
2018-07-27T12:42:13.868Z,30.43
2018-07-27T12:43:14.460Z,30.52
2018-07-27T12:44:15.156Z,30.81
2018-07-27T12:45:15.773Z,30.52
2018-07-27T12:46:16.349Z,30.32
2018-07-27T12:47:16.931Z,30.12
2018-07-27T12:48:17.511Z,30.25
2018-07-27T12:49:18.133Z,29.48
2018-07-27T12:50:18.680Z,29.31
2018-07-27T12:51:19.326Z,29.34
2018-07-27T12:52:19.828Z,29.14
2018-07-27T12:53:20.412Z,29.39
2018-07-27T12:54:20.992Z,29.60
2018-07-27T12:55:21.569Z,29.51
2018-07-27T12:56:22.148Z,28.62
2018-07-27T12:57:22.733Z,28.22
2018-07-27T12:58:24.304Z,28.81
2018-07-27T12:59:24.933Z,29.00
2018-07-27T13:00:25.463Z,29.00